createdAt,value
2018-10-15T00:00:20.228Z,28.16
2018-10-15T00:00:58.307Z,28.18
2018-10-15T00:01:36.424Z,28.21
2018-10-15T00:02:14.297Z,28.24
2018-10-15T00:02:52.265Z,28.24
2018-10-15T00:03:30.176Z,28.26
2018-10-15T00:04:08.322Z,28.29
2018-10-15T00:04:46.639Z,28.31
2018-10-15T00:05:24.900Z,28.34
2018-10-15T00:06:02.820Z,28.36
2018-10-15T00:06:40.787Z,28.39
2018-10-15T00:07:22.442Z,28.42
2018-10-15T00:08:00.325Z,28.45
2018-10-15T00:08:38.328Z,28.47
2018-10-15T00:09:16.207Z,28.52
2018-10-15T00:09:54.182Z,28.55
2018-10-15T00:10:32.081Z,28.59
2018-10-15T00:11:09.885Z,28.61
2018-10-15T00:11:47.789Z,28.65
2018-10-15T00:12:25.709Z,28.68
2018-10-15T00:13:03.777Z,28.78
2018-10-15T00:13:41.762Z,28.91
2018-10-15T00:14:19.694Z,29.02
2018-10-15T00:14:57.612Z,29.11
2018-10-15T00:15:35.549Z,29.21
2018-10-15T00:16:13.367Z,29.28
2018-10-15T00:16:51.184Z,29.36
2018-10-15T00:17:29.110Z,29.40
2018-10-15T00:18:07.068Z,29.49
2018-10-15T00:18:44.989Z,29.56
2018-10-15T00:19:22.890Z,29.58
2018-10-15T00:20:00.969Z,29.61
2018-10-15T00:20:38.880Z,29.62
2018-10-15T00:21:16.957Z,29.60
2018-10-15T00:21:54.998Z,29.54
2018-10-15T00:22:32.963Z,29.60
2018-10-15T00:23:10.887Z,29.58
2018-10-15T00:23:48.719Z,29.52
2018-10-15T00:24:26.646Z,29.53
2018-10-15T00:25:04.517Z,29.46
2018-10-15T00:25:42.561Z,29.49
2018-10-15T00:26:21.295Z,29.48
2018-10-15T00:26:59.390Z,29.47
2018-10-15T00:27:37.500Z,29.46
2018-10-15T00:28:17.011Z,29.44
2018-10-15T00:28:54.918Z,29.43
2018-10-15T00:29:33.037Z,29.41
2018-10-15T00:30:12.550Z,29.38
2018-10-15T00:30:50.431Z,29.39
2018-10-15T00:31:28.401Z,29.39
2018-10-15T00:32:06.409Z,29.38
2018-10-15T00:32:45.075Z,29.37
2018-10-15T00:33:22.986Z,29.38
2018-10-15T00:34:00.838Z,29.37
2018-10-15T00:34:38.706Z,29.36
2018-10-15T00:35:17.174Z,29.37
2018-10-15T00:35:55.114Z,29.38
2018-10-15T00:36:32.976Z,29.38
2018-10-15T00:37:10.927Z,29.38
2018-10-15T00:37:48.802Z,29.38
2018-10-15T00:38:26.980Z,29.39
2018-10-15T00:39:05.060Z,29.37
2018-10-15T00:39:43.015Z,29.40
2018-10-15T00:40:21.134Z,29.41
2018-10-15T00:40:59.651Z,29.41
2018-10-15T00:41:37.746Z,29.42
2018-10-15T00:42:15.513Z,29.42
2018-10-15T00:42:54.090Z,29.44
2018-10-15T00:43:31.868Z,29.44
2018-10-15T00:44:10.279Z,29.46
2018-10-15T00:44:48.098Z,29.47
2018-10-15T00:45:27.884Z,29.46
2018-10-15T00:46:05.834Z,29.43
2018-10-15T00:46:44.038Z,29.48
2018-10-15T00:47:22.261Z,29.47
2018-10-15T00:48:00.162Z,29.47
2018-10-15T00:48:38.912Z,29.47
2018-10-15T00:49:16.920Z,29.43
2018-10-15T00:49:55.407Z,29.48
2018-10-15T00:50:33.328Z,29.44
2018-10-15T00:51:11.631Z,29.44
2018-10-15T00:51:49.781Z,29.46
2018-10-15T00:52:27.729Z,29.44
2018-10-15T00:53:05.675Z,29.48
2018-10-15T00:53:43.614Z,29.47
2018-10-15T00:54:22.456Z,29.49
2018-10-15T00:55:00.289Z,29.46
2018-10-15T00:55:38.102Z,29.48
2018-10-15T00:56:16.104Z,29.48
2018-10-15T00:56:54.392Z,29.49
2018-10-15T00:57:32.359Z,29.49
2018-10-15T00:58:10.297Z,29.49
2018-10-15T00:58:48.278Z,29.52
2018-10-15T00:59:27.733Z,29.53
2018-10-15T01:00:05.701Z,29.54
2018-10-15T01:00:43.761Z,29.55
2018-10-15T01:01:22.777Z,29.58
2018-10-15T01:02:00.718Z,29.60
2018-10-15T01:02:38.572Z,29.63
2018-10-15T01:03:16.791Z,29.64
2018-10-15T01:03:54.817Z,29.66
2018-10-15T01:04:32.730Z,29.65
2018-10-15T01:05:13.227Z,29.72
2018-10-15T01:05:51.165Z,29.70
2018-10-15T01:06:29.402Z,29.78
2018-10-15T01:07:07.252Z,29.91
2018-10-15T01:07:45.972Z,30.11
2018-10-15T01:08:23.952Z,30.22
2018-10-15T01:09:02.339Z,30.25
2018-10-15T01:09:40.714Z,30.27
2018-10-15T01:10:18.696Z,30.36
2018-10-15T01:10:56.726Z,30.35
2018-10-15T01:11:34.581Z,30.35
2018-10-15T01:12:12.623Z,30.38
2018-10-15T01:12:50.576Z,30.41
2018-10-15T01:13:28.429Z,30.46
2018-10-15T01:14:06.342Z,30.50
2018-10-15T01:14:44.208Z,30.53
2018-10-15T01:15:22.130Z,30.61
2018-10-15T01:16:00.033Z,30.65
2018-10-15T01:16:37.898Z,30.72
2018-10-15T01:17:16.007Z,30.74
2018-10-15T01:17:54.352Z,30.77
2018-10-15T01:18:32.240Z,30.80
2018-10-15T01:19:10.366Z,30.84
2018-10-15T01:19:48.696Z,31.01
2018-10-15T01:20:26.723Z,31.16
2018-10-15T01:21:04.691Z,31.22
2018-10-15T01:21:43.729Z,31.27
2018-10-15T01:22:22.031Z,31.33
2018-10-15T01:23:01.557Z,31.34
2018-10-15T01:23:39.817Z,31.33
2018-10-15T01:24:18.167Z,31.34
2018-10-15T01:24:56.994Z,31.39
2018-10-15T01:25:35.089Z,31.47
2018-10-15T01:26:12.989Z,31.63
2018-10-15T01:26:51.037Z,31.75
2018-10-15T01:27:29.302Z,31.83
2018-10-15T01:28:07.359Z,31.95
2018-10-15T01:28:45.220Z,32.03
2018-10-15T01:29:23.021Z,32.04
2018-10-15T01:30:01.193Z,32.09
2018-10-15T01:30:39.440Z,32.13
2018-10-15T01:31:17.746Z,32.16
2018-10-15T01:31:55.660Z,32.25
2018-10-15T01:32:33.571Z,32.29
2018-10-15T01:33:11.803Z,32.33
2018-10-15T01:33:49.657Z,32.29
2018-10-15T01:34:27.564Z,32.35
2018-10-15T01:35:06.158Z,32.43
2018-10-15T01:35:44.309Z,32.46
2018-10-15T01:36:22.595Z,32.54
2018-10-15T01:37:01.061Z,32.61
2018-10-15T01:37:39.161Z,32.68
2018-10-15T01:38:17.800Z,32.73
2018-10-15T01:38:55.875Z,32.77
2018-10-15T01:39:33.740Z,32.81
2018-10-15T01:40:11.593Z,32.86
2018-10-15T01:40:49.674Z,32.88
2018-10-15T01:41:28.077Z,32.93
2018-10-15T01:42:05.922Z,32.91
2018-10-15T01:42:44.072Z,32.95
2018-10-15T01:43:22.104Z,32.97
2018-10-15T01:44:00.018Z,33.01
2018-10-15T01:44:37.874Z,33.05
2018-10-15T01:45:15.716Z,33.10
2018-10-15T01:45:53.588Z,33.12
2018-10-15T01:46:31.477Z,33.15
2018-10-15T01:47:09.440Z,33.17
2018-10-15T01:47:47.643Z,33.24
2018-10-15T01:48:25.581Z,33.23
2018-10-15T01:49:03.736Z,33.26
2018-10-15T01:49:41.794Z,33.30
2018-10-15T01:50:20.338Z,33.31
2018-10-15T01:50:58.272Z,33.36
2018-10-15T01:51:36.518Z,33.38
2018-10-15T01:52:14.926Z,33.42
2018-10-15T01:52:53.452Z,33.46
2018-10-15T01:53:31.349Z,33.48
2018-10-15T01:54:09.716Z,33.54
2018-10-15T01:54:47.653Z,33.59
2018-10-15T01:55:25.689Z,33.62
2018-10-15T01:56:04.007Z,33.66
2018-10-15T01:56:42.222Z,33.71
2018-10-15T01:57:21.136Z,33.75
2018-10-15T01:57:59.814Z,33.79
2018-10-15T01:58:38.344Z,33.83
2018-10-15T01:59:16.448Z,33.86
2018-10-15T01:59:54.434Z,33.89
2018-10-15T02:00:32.362Z,33.91
2018-10-15T02:01:10.668Z,33.94
2018-10-15T02:01:48.837Z,33.97
2018-10-15T02:02:26.665Z,33.99
2018-10-15T02:03:04.581Z,33.95
2018-10-15T02:03:42.431Z,33.96
2018-10-15T02:04:20.385Z,33.91
2018-10-15T02:04:58.200Z,33.84
2018-10-15T02:05:36.204Z,33.89
2018-10-15T02:06:14.162Z,33.90
2018-10-15T02:06:55.558Z,33.82
2018-10-15T02:07:33.460Z,33.78
2018-10-15T02:08:55.332Z,33.68
2018-10-15T02:09:34.709Z,33.73
2018-10-15T02:10:12.757Z,33.71
2018-10-15T02:10:50.715Z,33.68
2018-10-15T02:11:28.679Z,33.60
2018-10-15T02:12:06.604Z,33.51
2018-10-15T02:12:44.807Z,33.47
2018-10-15T02:13:22.813Z,33.45
2018-10-15T02:14:01.248Z,33.40
2018-10-15T02:14:39.949Z,33.37
2018-10-15T02:15:17.865Z,33.39
2018-10-15T02:15:56.023Z,33.37
2018-10-15T02:16:34.180Z,33.36
2018-10-15T02:17:12.269Z,33.36
2018-10-15T02:17:50.311Z,33.36
2018-10-15T02:18:28.123Z,33.33
2018-10-15T02:19:06.034Z,33.27
2018-10-15T02:19:44.048Z,33.20
2018-10-15T02:20:21.939Z,33.14
2018-10-15T02:20:59.900Z,33.11
2018-10-15T02:21:37.853Z,33.08
2018-10-15T02:22:15.790Z,33.04
2018-10-15T02:22:54.017Z,33.02
2018-10-15T02:23:31.915Z,32.95
2018-10-15T02:24:10.141Z,32.91
2018-10-15T02:24:47.911Z,32.85
2018-10-15T02:25:25.793Z,32.80
2018-10-15T02:26:03.901Z,32.76
2018-10-15T02:26:41.982Z,32.71
2018-10-15T02:27:19.944Z,32.70
2018-10-15T02:27:57.966Z,32.68
2018-10-15T02:28:35.837Z,32.68
2018-10-15T02:29:14.204Z,32.65
2018-10-15T02:29:52.074Z,32.65
2018-10-15T02:30:29.985Z,32.67
2018-10-15T02:31:08.178Z,32.72
2018-10-15T02:31:46.077Z,32.86
2018-10-15T02:32:23.991Z,33.05
2018-10-15T02:33:02.458Z,33.22
2018-10-15T02:33:40.272Z,33.35
2018-10-15T02:34:18.141Z,33.51
2018-10-15T02:34:56.090Z,33.58
2018-10-15T02:35:34.136Z,33.59
2018-10-15T02:36:12.010Z,33.69
2018-10-15T02:36:50.385Z,33.79
2018-10-15T02:37:28.277Z,33.88
2018-10-15T02:38:06.082Z,33.93
2018-10-15T02:38:44.134Z,34.00
2018-10-15T02:39:22.418Z,34.00
2018-10-15T02:40:00.415Z,34.03
2018-10-15T02:40:38.356Z,34.09
2018-10-15T02:41:16.301Z,34.12
2018-10-15T02:44:07.754Z,34.17
2018-10-15T02:44:45.800Z,34.24
2018-10-15T02:45:24.879Z,34.30
2018-10-15T02:46:03.035Z,34.37
2018-10-15T02:46:41.597Z,34.47
2018-10-15T02:47:19.673Z,34.45
2018-10-15T02:47:57.590Z,34.33
2018-10-15T02:48:35.977Z,34.19
2018-10-15T02:49:13.819Z,34.17
2018-10-15T02:49:51.673Z,34.18
2018-10-15T02:50:29.917Z,34.21
2018-10-15T02:51:07.902Z,34.31
2018-10-15T02:51:45.807Z,34.37
2018-10-15T02:52:23.900Z,34.42
2018-10-15T02:53:02.213Z,34.47
2018-10-15T02:53:40.286Z,34.52
2018-10-15T02:54:18.066Z,34.60
2018-10-15T02:54:56.590Z,34.64
2018-10-15T02:55:34.627Z,34.73
2018-10-15T02:56:12.913Z,34.80
2018-10-15T02:56:50.821Z,34.86
2018-10-15T02:57:28.630Z,34.90
2018-10-15T02:58:06.677Z,34.97
2018-10-15T02:58:46.267Z,35.04
2018-10-15T02:59:24.210Z,35.10
2018-10-15T03:00:02.231Z,35.09
2018-10-15T03:00:40.090Z,34.91
2018-10-15T03:01:17.984Z,34.71
2018-10-15T03:01:55.995Z,34.55
2018-10-15T03:02:34.034Z,34.44
2018-10-15T03:03:11.928Z,34.32
2018-10-15T03:03:49.777Z,34.51
2018-10-15T03:04:28.000Z,34.62
2018-10-15T03:05:05.992Z,34.69
2018-10-15T03:05:43.987Z,34.79
2018-10-15T03:06:22.026Z,34.86
2018-10-15T03:07:00.159Z,34.92
2018-10-15T03:07:38.041Z,35.00
2018-10-15T03:08:15.852Z,35.03
2018-10-15T03:08:53.702Z,34.91
2018-10-15T03:09:31.693Z,34.91
2018-10-15T03:10:10.081Z,34.97
2018-10-15T03:10:48.233Z,34.97
2018-10-15T03:11:26.141Z,34.92
2018-10-15T03:12:04.168Z,34.91
2018-10-15T03:12:42.262Z,34.85
2018-10-15T03:13:20.467Z,34.80
2018-10-15T03:13:58.424Z,34.82
2018-10-15T03:14:36.310Z,34.83
2018-10-15T03:15:14.473Z,34.87
2018-10-15T03:15:53.490Z,34.84
2018-10-15T03:16:31.449Z,34.93
2018-10-15T03:17:09.556Z,34.96
2018-10-15T03:17:47.390Z,34.84
2018-10-15T03:18:25.280Z,34.76
2018-10-15T03:19:03.203Z,34.69
2018-10-15T03:19:41.118Z,34.61
2018-10-15T03:20:19.204Z,34.62
2018-10-15T03:20:57.189Z,34.54
2018-10-15T03:21:35.097Z,34.48
2018-10-15T03:22:13.552Z,34.35
2018-10-15T03:22:52.581Z,34.32
2018-10-15T03:23:30.484Z,34.39
2018-10-15T03:24:08.383Z,34.47
2018-10-15T03:24:46.421Z,34.50
2018-10-15T03:25:24.222Z,34.48
2018-10-15T03:26:02.153Z,34.47
2018-10-15T03:26:39.992Z,34.43
2018-10-15T03:27:18.561Z,34.42
2018-10-15T03:27:56.433Z,34.44
2018-10-15T03:28:34.364Z,34.44
2018-10-15T03:29:12.458Z,34.43
2018-10-15T03:29:50.646Z,34.43
2018-10-15T03:30:28.598Z,34.45
2018-10-15T03:31:06.442Z,34.47
2018-10-15T03:31:44.650Z,34.48
2018-10-15T03:32:22.613Z,34.49
2018-10-15T03:33:00.487Z,34.50
2018-10-15T03:33:38.319Z,34.48
2018-10-15T03:34:16.388Z,34.44
2018-10-15T03:34:54.288Z,34.42
2018-10-15T03:35:32.268Z,34.37
2018-10-15T03:36:10.685Z,34.31
2018-10-15T03:36:49.033Z,34.36
2018-10-15T03:37:26.993Z,34.36
2018-10-15T03:38:04.999Z,34.44
2018-10-15T03:38:42.793Z,34.41
2018-10-15T03:39:20.850Z,34.42
2018-10-15T03:39:58.797Z,34.39
2018-10-15T03:40:37.693Z,34.39
2018-10-15T03:41:15.594Z,34.36
2018-10-15T03:41:53.455Z,34.33
2018-10-15T03:42:31.398Z,34.28
2018-10-15T03:43:10.319Z,34.24
2018-10-15T03:43:48.334Z,34.20
2018-10-15T03:44:26.278Z,34.18
2018-10-15T03:45:04.283Z,34.14
2018-10-15T03:45:42.233Z,34.10
2018-10-15T03:46:20.176Z,34.04
2018-10-15T03:46:59.797Z,34.04
2018-10-15T03:47:37.783Z,34.06
2018-10-15T03:48:15.696Z,34.05
2018-10-15T03:48:53.737Z,34.01
2018-10-15T03:49:31.675Z,33.95
2018-10-15T03:50:10.624Z,33.90
2018-10-15T03:50:48.589Z,33.85
2018-10-15T03:51:26.437Z,33.80
2018-10-15T03:52:04.569Z,33.76
2018-10-15T03:52:42.531Z,33.76
2018-10-15T03:53:20.538Z,33.76
2018-10-15T03:53:58.969Z,33.79
2018-10-15T03:54:36.961Z,33.91
2018-10-15T03:55:14.937Z,33.99
2018-10-15T03:55:52.871Z,34.08
2018-10-15T03:56:30.858Z,34.07
2018-10-15T03:57:09.205Z,34.10
2018-10-15T03:57:47.481Z,34.11
2018-10-15T03:58:25.388Z,34.18
2018-10-15T03:59:03.905Z,34.22
2018-10-15T03:59:42.064Z,34.19
2018-10-15T04:00:20.085Z,34.18
2018-10-15T04:00:57.973Z,34.22
2018-10-15T04:01:35.750Z,34.23
2018-10-15T04:02:13.804Z,34.12
2018-10-15T04:02:51.761Z,34.01
2018-10-15T04:03:29.596Z,33.93
2018-10-15T04:04:07.604Z,33.79
2018-10-15T04:04:45.622Z,33.70
2018-10-15T04:05:23.920Z,33.56
2018-10-15T04:06:01.761Z,33.40
2018-10-15T04:06:39.849Z,33.26
2018-10-15T04:07:17.726Z,33.08
2018-10-15T04:07:55.613Z,32.99
2018-10-15T04:08:33.539Z,32.98
2018-10-15T04:09:14.439Z,32.95
2018-10-15T04:09:52.443Z,32.94
2018-10-15T04:10:30.347Z,33.08
2018-10-15T04:11:08.480Z,33.20
2018-10-15T04:11:46.420Z,33.33
2018-10-15T04:12:24.387Z,33.33
2018-10-15T04:13:02.321Z,33.35
2018-10-15T04:13:40.256Z,33.39
2018-10-15T04:14:18.197Z,33.49
2018-10-15T04:14:56.223Z,33.52
2018-10-15T04:15:34.192Z,33.58
2018-10-15T04:16:12.113Z,33.62
2018-10-15T04:16:50.149Z,33.62
2018-10-15T04:17:28.205Z,33.61
2018-10-15T04:18:06.257Z,33.58
2018-10-15T04:18:44.192Z,33.53
2018-10-15T04:19:22.028Z,33.51
2018-10-15T04:19:59.854Z,33.44
2018-10-15T04:20:37.657Z,33.40
2018-10-15T04:21:15.522Z,33.35
2018-10-15T04:21:53.536Z,33.31
2018-10-15T04:22:36.535Z,33.28
2018-10-15T04:23:14.843Z,33.25
2018-10-15T04:23:52.965Z,33.20
2018-10-15T04:24:31.023Z,33.20
2018-10-15T04:25:09.041Z,33.18
2018-10-15T04:25:47.255Z,33.14
2018-10-15T04:26:25.148Z,33.13
2018-10-15T04:27:03.041Z,33.06
2018-10-15T04:27:40.992Z,33.04
2018-10-15T04:28:19.068Z,33.04
2018-10-15T04:28:56.976Z,32.99
2018-10-15T04:29:34.856Z,32.99
2018-10-15T04:30:12.675Z,32.95
2018-10-15T04:30:50.598Z,32.92
2018-10-15T04:31:28.764Z,32.92
2018-10-15T04:32:06.624Z,32.90
2018-10-15T04:32:44.623Z,32.89
2018-10-15T04:33:22.469Z,32.87
2018-10-15T04:34:00.385Z,32.86
2018-10-15T04:34:38.398Z,32.84
2018-10-15T04:35:16.324Z,32.80
2018-10-15T04:35:55.017Z,32.75
2018-10-15T04:36:35.259Z,32.72
2018-10-15T04:37:13.494Z,32.68
2018-10-15T04:37:51.469Z,32.67
2018-10-15T04:38:29.553Z,32.64
2018-10-15T04:39:10.029Z,32.60
2018-10-15T04:39:47.971Z,32.56
2018-10-15T04:40:25.889Z,32.53
2018-10-15T04:41:03.766Z,32.50
2018-10-15T04:41:43.353Z,32.46
2018-10-15T04:42:21.248Z,32.44
2018-10-15T04:42:59.173Z,32.39
2018-10-15T04:43:37.206Z,32.36
2018-10-15T04:44:15.060Z,32.34
2018-10-15T04:44:52.990Z,32.31
2018-10-15T04:45:31.055Z,32.28
2018-10-15T04:46:09.577Z,32.26
2018-10-15T04:46:47.396Z,32.25
2018-10-15T04:47:25.414Z,32.24
2018-10-15T04:48:03.436Z,32.23
2018-10-15T04:48:41.485Z,32.22
2018-10-15T04:49:19.990Z,32.19
2018-10-15T04:49:58.260Z,32.19
2018-10-15T04:50:36.238Z,32.18
2018-10-15T04:51:14.620Z,32.16
2018-10-15T04:51:52.612Z,32.14
2018-10-15T04:52:30.726Z,32.12
2018-10-15T04:53:09.077Z,32.09
2018-10-15T04:53:47.072Z,32.05
2018-10-15T04:54:24.922Z,32.03
2018-10-15T04:55:03.056Z,32.02
2018-10-15T04:55:40.952Z,32.01
2018-10-15T04:56:19.407Z,31.99
2018-10-15T04:56:57.291Z,31.99
2018-10-15T04:57:35.455Z,31.99
2018-10-15T04:58:13.650Z,31.98
2018-10-15T04:58:51.484Z,31.99
2018-10-15T04:59:29.393Z,32.01
2018-10-15T05:00:07.659Z,32.01
2018-10-15T05:00:45.721Z,31.99
2018-10-15T05:01:23.795Z,31.99
2018-10-15T05:02:01.695Z,32.05
2018-10-15T05:02:39.623Z,32.02
2018-10-15T05:03:17.488Z,32.05
2018-10-15T05:03:55.486Z,32.06
2018-10-15T05:04:33.492Z,32.07
2018-10-15T05:05:13.629Z,32.08
2018-10-15T05:05:51.445Z,32.08
2018-10-15T05:06:29.372Z,32.10
2018-10-15T05:07:07.288Z,32.12
2018-10-15T05:07:45.767Z,32.13
2018-10-15T05:08:23.708Z,32.14
2018-10-15T05:09:01.569Z,32.15
2018-10-15T05:09:39.670Z,32.14
2018-10-15T05:10:17.686Z,32.16
2018-10-15T05:10:55.621Z,32.14
2018-10-15T05:11:33.501Z,32.15
2018-10-15T05:12:11.296Z,32.14
2018-10-15T05:12:49.271Z,32.11
2018-10-15T05:13:28.018Z,32.09
2018-10-15T05:14:06.120Z,32.08
2018-10-15T05:14:44.027Z,32.05
2018-10-15T05:15:22.134Z,32.04
2018-10-15T05:15:59.945Z,32.02
2018-10-15T05:16:38.091Z,31.98
2018-10-15T05:17:15.968Z,31.97
2018-10-15T05:17:53.857Z,31.95
2018-10-15T05:18:31.759Z,31.93
2018-10-15T05:19:10.229Z,31.92
2018-10-15T05:19:48.151Z,31.87
2018-10-15T05:20:26.052Z,31.85
2018-10-15T05:21:03.978Z,31.85
2018-10-15T05:21:41.919Z,31.84
2018-10-15T05:22:20.707Z,31.82
2018-10-15T05:22:58.654Z,31.82
2018-10-15T05:23:36.534Z,31.81
2018-10-15T05:24:14.667Z,31.80
2018-10-15T05:24:52.509Z,31.80
2018-10-15T05:25:30.510Z,31.79
2018-10-15T05:26:08.583Z,31.79
2018-10-15T05:26:46.396Z,31.79
2018-10-15T05:27:24.276Z,31.79
2018-10-15T05:28:02.679Z,31.78
2018-10-15T05:28:40.920Z,31.77
2018-10-15T05:29:18.753Z,31.78
2018-10-15T05:29:56.729Z,31.76
2018-10-15T05:30:35.850Z,31.75
2018-10-15T05:31:14.571Z,31.74
2018-10-15T05:31:52.421Z,31.75
2018-10-15T05:32:30.393Z,31.75
2018-10-15T05:33:08.497Z,31.71
2018-10-15T05:33:46.824Z,31.68
2018-10-15T05:34:24.788Z,31.68
2018-10-15T05:35:02.748Z,31.68
2018-10-15T05:35:40.629Z,31.68
2018-10-15T05:36:18.624Z,31.67
2018-10-15T05:36:56.751Z,31.66
2018-10-15T05:37:34.677Z,31.65
2018-10-15T05:38:12.905Z,31.66
2018-10-15T05:38:51.265Z,31.65
2018-10-15T05:39:29.179Z,31.66
2018-10-15T05:40:07.125Z,31.65
2018-10-15T05:40:45.183Z,31.65
2018-10-15T05:41:23.137Z,31.64
2018-10-15T05:42:01.018Z,31.63
2018-10-15T05:42:39.405Z,31.62
2018-10-15T05:43:17.758Z,31.63
2018-10-15T05:43:55.647Z,31.62
2018-10-15T05:44:33.636Z,31.61
2018-10-15T05:45:13.716Z,31.61
2018-10-15T05:45:53.014Z,31.62
2018-10-15T05:46:31.104Z,31.61
2018-10-15T05:47:09.148Z,31.61
2018-10-15T05:47:47.484Z,31.60
2018-10-15T05:48:25.917Z,31.59
2018-10-15T05:49:04.169Z,31.59
2018-10-15T05:49:42.666Z,31.59
2018-10-15T05:50:20.552Z,31.59
2018-10-15T05:50:58.416Z,31.59
2018-10-15T05:51:36.903Z,31.59
2018-10-15T05:52:15.832Z,31.60
2018-10-15T05:52:54.172Z,31.61
2018-10-15T05:53:32.044Z,31.62
2018-10-15T05:54:14.326Z,31.62
2018-10-15T05:54:52.376Z,31.63
2018-10-15T05:55:30.816Z,31.64
2018-10-15T05:56:09.360Z,31.66
2018-10-15T05:56:47.541Z,31.68
2018-10-15T05:57:25.488Z,31.69
2018-10-15T05:58:03.568Z,31.73
2018-10-15T05:58:41.396Z,31.74
2018-10-15T05:59:19.603Z,31.76
2018-10-15T05:59:57.596Z,31.79
2018-10-15T06:00:35.456Z,31.82
2018-10-15T06:01:13.374Z,31.85
2018-10-15T06:01:51.271Z,31.86
2018-10-15T06:02:29.779Z,31.89
2018-10-15T06:03:07.916Z,31.91
2018-10-15T06:03:45.845Z,31.94
2018-10-15T06:04:23.639Z,31.97
2018-10-15T06:05:01.379Z,31.99
2018-10-15T06:05:39.361Z,32.04
2018-10-15T06:06:17.361Z,32.06
2018-10-15T06:06:55.312Z,32.09
2018-10-15T06:07:33.112Z,32.10
2018-10-15T06:08:11.146Z,32.13
2018-10-15T06:08:48.977Z,32.15
2018-10-15T06:09:26.767Z,32.17
2018-10-15T06:10:04.606Z,32.19
2018-10-15T06:10:42.534Z,32.21
2018-10-15T06:11:20.617Z,32.22
2018-10-15T06:11:58.496Z,32.22
2018-10-15T06:12:36.346Z,32.23
2018-10-15T06:13:14.405Z,32.22
2018-10-15T06:13:53.264Z,32.21
2018-10-15T06:14:31.094Z,32.20
2018-10-15T06:15:09.922Z,32.21
2018-10-15T06:15:47.833Z,32.20
2018-10-15T06:16:25.713Z,32.18
2018-10-15T06:17:03.678Z,32.17
2018-10-15T06:17:42.809Z,32.15
2018-10-15T06:18:20.675Z,32.13
2018-10-15T06:18:58.606Z,32.11
2018-10-15T06:19:36.486Z,32.07
2018-10-15T06:20:15.861Z,32.06
2018-10-15T06:20:53.729Z,32.04
2018-10-15T06:21:31.618Z,32.01
2018-10-15T06:22:09.864Z,31.97
2018-10-15T06:22:47.784Z,31.94
2018-10-15T06:23:26.135Z,31.90
2018-10-15T06:24:03.989Z,31.89
2018-10-15T06:24:41.963Z,31.85
2018-10-15T06:25:21.564Z,31.83
2018-10-15T06:26:00.178Z,31.80
2018-10-15T06:26:38.309Z,31.78
2018-10-15T06:27:16.156Z,31.74
2018-10-15T06:27:54.161Z,31.71
2018-10-15T06:28:32.210Z,31.68
2018-10-15T06:29:10.168Z,31.66
2018-10-15T06:29:48.167Z,31.64
2018-10-15T06:30:26.082Z,31.61
2018-10-15T06:31:04.499Z,31.60
2018-10-15T06:31:42.501Z,31.57
2018-10-15T06:32:20.361Z,31.56
2018-10-15T06:32:58.237Z,31.55
2018-10-15T06:33:36.346Z,31.54
2018-10-15T06:34:14.374Z,31.52
2018-10-15T06:34:52.320Z,31.51
2018-10-15T06:35:31.137Z,31.49
2018-10-15T06:36:09.685Z,31.48
2018-10-15T06:36:47.701Z,31.44
2018-10-15T06:37:25.673Z,31.42
2018-10-15T06:38:03.704Z,31.39
2018-10-15T06:38:41.585Z,31.37
2018-10-15T06:39:19.519Z,31.35
2018-10-15T06:39:57.688Z,31.31
2018-10-15T06:40:35.746Z,31.31
2018-10-15T06:41:13.642Z,31.28
2018-10-15T06:41:51.740Z,31.27
2018-10-15T06:42:29.591Z,31.24
2018-10-15T06:43:07.451Z,31.23
2018-10-15T06:43:45.645Z,31.23
2018-10-15T06:44:23.854Z,31.21
2018-10-15T06:45:01.834Z,31.20
2018-10-15T06:45:40.197Z,31.19
2018-10-15T06:46:18.119Z,31.16
2018-10-15T06:46:56.012Z,31.16
2018-10-15T06:47:33.973Z,31.12
2018-10-15T06:48:11.932Z,31.10
2018-10-15T06:48:50.396Z,31.10
2018-10-15T06:49:28.748Z,31.09
2018-10-15T06:50:07.928Z,31.07
2018-10-15T06:50:46.115Z,31.07
2018-10-15T06:51:23.942Z,31.05
2018-10-15T06:52:02.014Z,31.05
2018-10-15T06:52:40.122Z,31.04
2018-10-15T06:53:18.187Z,31.02
2018-10-15T06:53:56.173Z,31.02
2018-10-15T06:54:33.999Z,31.00
2018-10-15T06:55:12.183Z,30.99
2018-10-15T06:55:50.016Z,30.98
2018-10-15T06:56:28.068Z,30.97
2018-10-15T06:57:06.102Z,30.96
2018-10-15T06:57:44.066Z,30.94
2018-10-15T06:58:22.003Z,30.92
2018-10-15T06:58:59.840Z,30.92
2018-10-15T06:59:37.812Z,30.90
2018-10-15T07:00:15.903Z,30.89
2018-10-15T07:00:53.969Z,30.88
2018-10-15T07:01:31.964Z,30.86
2018-10-15T07:02:10.269Z,30.85
2018-10-15T07:02:48.235Z,30.83
2018-10-15T07:03:26.164Z,30.80
2018-10-15T07:04:04.173Z,30.77
2018-10-15T07:04:42.416Z,30.78
2018-10-15T07:05:20.339Z,30.74
2018-10-15T07:05:58.141Z,30.72
2018-10-15T07:06:36.003Z,30.71
2018-10-15T07:07:14.115Z,30.70
2018-10-15T07:07:52.220Z,30.67
2018-10-15T07:08:30.097Z,30.65
2018-10-15T07:09:09.992Z,30.63
2018-10-15T07:09:47.931Z,30.61
2018-10-15T07:10:25.879Z,30.60
2018-10-15T07:11:03.932Z,30.60
2018-10-15T07:11:41.786Z,30.59
2018-10-15T07:12:19.920Z,30.57
2018-10-15T07:12:57.939Z,30.57
2018-10-15T07:13:35.999Z,30.56
2018-10-15T07:14:13.963Z,30.53
2018-10-15T07:14:51.882Z,30.53
2018-10-15T07:15:29.853Z,30.53
2018-10-15T07:16:08.091Z,30.47
2018-10-15T07:16:45.992Z,30.47
2018-10-15T07:17:24.089Z,30.52
2018-10-15T07:18:01.892Z,30.53
2018-10-15T07:18:39.721Z,30.52
2018-10-15T07:19:17.715Z,30.53
2018-10-15T07:19:55.718Z,30.52
2018-10-15T07:20:33.593Z,30.51
2018-10-15T07:21:11.528Z,30.51
2018-10-15T07:21:49.477Z,30.49
2018-10-15T07:22:27.332Z,30.45
2018-10-15T07:23:05.374Z,30.45
2018-10-15T07:23:43.805Z,30.42
2018-10-15T07:24:21.839Z,30.40
2018-10-15T07:25:08.817Z,30.39
2018-10-15T07:25:46.658Z,30.37
2018-10-15T07:26:24.966Z,30.33
2018-10-15T07:27:02.890Z,30.32
2018-10-15T07:27:40.840Z,30.32
2018-10-15T07:28:20.622Z,30.30
2018-10-15T07:28:58.585Z,30.29
2018-10-15T07:29:37.851Z,30.24
2018-10-15T07:30:16.187Z,30.28
2018-10-15T07:30:54.377Z,30.27
2018-10-15T07:31:32.169Z,30.27
2018-10-15T07:32:10.056Z,30.22
2018-10-15T07:32:47.965Z,30.22
2018-10-15T07:33:25.880Z,30.21
2018-10-15T07:34:03.848Z,30.18
2018-10-15T07:34:41.838Z,30.14
2018-10-15T07:35:19.680Z,30.13
2018-10-15T07:35:57.550Z,30.12
2018-10-15T07:36:37.003Z,30.09
2018-10-15T07:37:15.046Z,30.11
2018-10-15T07:37:53.033Z,30.11
2018-10-15T07:38:30.862Z,30.11
2018-10-15T07:39:12.155Z,30.11
2018-10-15T07:39:50.490Z,30.11
2018-10-15T07:40:29.001Z,30.12
2018-10-15T07:41:07.037Z,30.08
2018-10-15T07:41:45.371Z,30.07
2018-10-15T07:42:23.319Z,30.02
2018-10-15T07:43:01.294Z,30.00
2018-10-15T07:43:39.547Z,30.03
2018-10-15T07:44:19.679Z,30.02
2018-10-15T07:44:57.885Z,29.99
2018-10-15T07:45:36.673Z,29.96
2018-10-15T07:46:15.336Z,29.92
2018-10-15T07:46:53.559Z,29.91
2018-10-15T07:47:31.509Z,29.85
2018-10-15T07:48:09.906Z,29.81
2018-10-15T07:48:48.265Z,29.85
2018-10-15T07:49:26.118Z,29.84
2018-10-15T07:50:03.986Z,29.82
2018-10-15T07:50:41.967Z,29.80
2018-10-15T07:51:19.852Z,29.79
2018-10-15T07:51:57.772Z,29.77
2018-10-15T07:52:35.732Z,29.76
2018-10-15T07:53:14.916Z,29.75
2018-10-15T07:53:52.943Z,29.73
2018-10-15T07:54:30.843Z,29.73
2018-10-15T07:55:09.975Z,29.72
2018-10-15T07:55:48.030Z,29.71
2018-10-15T07:56:26.136Z,29.70
2018-10-15T07:57:04.016Z,29.69
2018-10-15T07:57:42.561Z,29.67
2018-10-15T07:58:20.549Z,29.66
2018-10-15T07:58:58.598Z,29.66
2018-10-15T07:59:36.583Z,29.64
2018-10-15T08:00:20.578Z,29.63
2018-10-15T08:00:58.568Z,29.62
2018-10-15T08:01:36.571Z,29.63
2018-10-15T08:02:14.641Z,29.61
2018-10-15T08:02:53.256Z,29.62
2018-10-15T08:03:32.640Z,29.62
2018-10-15T08:04:10.611Z,29.60
2018-10-15T08:04:48.628Z,29.60
2018-10-15T08:05:27.267Z,29.58
2018-10-15T08:06:05.270Z,29.58
2018-10-15T08:06:43.185Z,29.57
2018-10-15T08:07:21.004Z,29.58
2018-10-15T08:07:59.436Z,29.58
2018-10-15T08:08:37.739Z,29.57
2018-10-15T08:09:15.642Z,29.58
2018-10-15T08:09:53.496Z,29.58
2018-10-15T08:10:32.818Z,29.55
2018-10-15T08:11:10.692Z,29.60
2018-10-15T08:11:49.828Z,29.55
2018-10-15T08:12:27.707Z,29.61
2018-10-15T08:13:05.736Z,29.61
2018-10-15T08:13:43.702Z,29.62
2018-10-15T08:14:21.564Z,29.62